createdAt,value
2022-09-10T00:00:05.588Z,95546.22
2022-09-10T00:02:37.806Z,95539.41
2022-09-10T00:05:05.174Z,95540.44
2022-09-10T00:07:32.595Z,95551.81
2022-09-10T00:09:59.623Z,95544.69
2022-09-10T00:12:26.658Z,95550.19
2022-09-10T00:14:54.041Z,95550.00
2022-09-10T00:17:24.224Z,95544.19
2022-09-10T00:19:51.337Z,95540.16
2022-09-10T00:22:18.376Z,95541.38
2022-09-10T00:24:45.432Z,95541.38
2022-09-10T00:27:12.513Z,95542.44
2022-09-10T00:29:39.607Z,95548.94
2022-09-10T00:32:06.648Z,95544.13
2022-09-10T00:34:34.409Z,95547.41
2022-09-10T00:37:01.463Z,95541.50
2022-09-10T00:39:28.537Z,95542.88
2022-09-10T00:41:55.835Z,95543.47
2022-09-10T00:44:41.603Z,95538.66
2022-09-10T00:47:15.060Z,95543.25
2022-09-10T00:49:54.706Z,95537.84
2022-09-10T00:52:22.951Z,95534.06
2022-09-10T00:54:50.176Z,95537.03
2022-09-10T00:57:19.914Z,95540.25
2022-09-10T00:59:50.028Z,95535.75
2022-09-10T01:02:17.124Z,95528.84
2022-09-10T01:04:44.689Z,95533.22
2022-09-10T01:07:12.295Z,95526.81
2022-09-10T01:09:39.769Z,95533.38
2022-09-10T01:12:13.480Z,95529.94
2022-09-10T01:14:59.264Z,95531.84
2022-09-10T01:17:30.449Z,95534.09
2022-09-10T01:19:58.233Z,95523.69
2022-09-10T01:22:42.522Z,95528.06
2022-09-10T01:25:20.661Z,95522.44
2022-09-10T01:27:54.222Z,95522.97
2022-09-10T01:30:22.666Z,95521.22
2022-09-10T01:33:08.539Z,95520.34
2022-09-10T01:35:45.088Z,95535.22
2022-09-10T01:38:15.509Z,95528.81
2022-09-10T01:40:43.609Z,95530.69
2022-09-10T01:43:14.901Z,95529.44
2022-09-10T01:46:05.776Z,95527.47
2022-09-10T01:48:44.976Z,95527.72
2022-09-10T01:51:12.607Z,95531.06
2022-09-10T01:53:47.194Z,95527.94
2022-09-10T01:56:23.568Z,95533.59
2022-09-10T01:58:54.414Z,95530.09
2022-09-10T02:01:39.949Z,95533.31
2022-09-10T02:04:09.842Z,95523.91
2022-09-10T02:06:39.041Z,95525.88
2022-09-10T02:09:07.277Z,95522.66
2022-09-10T02:11:47.326Z,95514.53
2022-09-10T02:14:22.894Z,95515.53
2022-09-10T02:17:03.024Z,95521.53
2022-09-10T02:19:30.154Z,95517.16
2022-09-10T02:21:58.124Z,95509.34
2022-09-10T02:24:25.168Z,95513.22
2022-09-10T02:26:52.225Z,95514.53
2022-09-10T02:29:19.411Z,95500.81
2022-09-10T02:31:47.461Z,95503.22
2022-09-10T02:34:16.006Z,95506.44
2022-09-10T02:36:46.910Z,95508.91
2022-09-10T02:39:14.876Z,95511.41
2022-09-10T02:41:43.274Z,95513.00
2022-09-10T02:44:10.322Z,95507.81
2022-09-10T02:46:38.175Z,95498.84
2022-09-10T02:49:05.285Z,95500.75
2022-09-10T02:51:37.069Z,95488.75
2022-09-10T02:54:04.896Z,95494.19
2022-09-10T02:56:32.392Z,95492.38
2022-09-10T02:58:59.588Z,95495.34
2022-09-10T03:01:28.467Z,95486.19
2022-09-10T03:04:00.608Z,95489.16
2022-09-10T03:06:29.485Z,95496.44
2022-09-10T03:08:57.606Z,95499.44
2022-09-10T03:11:27.389Z,95500.66
2022-09-10T03:13:55.468Z,95497.41
2022-09-10T03:16:24.315Z,95500.00
2022-09-10T03:18:52.299Z,95497.41
2022-09-10T03:21:20.602Z,95488.22
2022-09-10T03:23:52.609Z,95494.63
2022-09-10T03:26:27.404Z,95487.06
2022-09-10T03:28:55.094Z,95490.28
2022-09-10T03:31:26.115Z,95493.44
2022-09-10T03:33:53.230Z,95491.28
2022-09-10T03:36:22.669Z,95495.06
2022-09-10T03:38:50.208Z,95495.06
2022-09-10T03:41:17.411Z,95502.66
2022-09-10T03:43:45.165Z,95500.63
2022-09-10T03:46:12.514Z,95500.97
2022-09-10T03:48:45.896Z,95506.13
2022-09-10T03:51:13.158Z,95505.13
2022-09-10T03:53:40.937Z,95510.53
2022-09-10T03:56:10.559Z,95508.31
2022-09-10T03:58:37.782Z,95508.75
2022-09-10T04:01:04.914Z,95500.38
2022-09-10T04:03:35.612Z,95493.91
2022-09-10T04:06:02.602Z,95494.44
2022-09-10T04:08:29.603Z,95493.63
2022-09-10T04:11:01.534Z,95495.22
2022-09-10T04:13:28.573Z,95501.34
2022-09-10T04:15:56.078Z,95498.34
2022-09-10T04:18:23.663Z,95492.66
2022-09-10T04:20:50.674Z,95492.97
2022-09-10T04:23:17.686Z,95494.63
2022-09-10T04:25:46.499Z,95486.63
2022-09-10T04:28:13.507Z,95500.09
2022-09-10T04:30:40.611Z,95495.59
2022-09-10T04:33:09.457Z,95501.56
2022-09-10T04:35:36.584Z,95501.25
2022-09-10T04:38:07.139Z,95502.88
2022-09-10T04:40:37.314Z,95500.19
2022-09-10T04:43:05.001Z,95499.56
2022-09-10T04:45:35.382Z,95501.47
2022-09-10T04:48:06.693Z,95515.19
2022-09-10T04:50:35.524Z,95517.88
2022-09-10T04:53:16.984Z,95514.59
2022-09-10T04:55:46.713Z,95516.78
2022-09-10T04:58:13.778Z,95516.78
2022-09-10T05:00:42.615Z,95518.41
2022-09-10T05:03:09.747Z,95513.00
2022-09-10T05:05:38.250Z,95516.47
2022-09-10T05:08:06.567Z,95513.78
2022-09-10T05:10:36.047Z,95516.19
2022-09-10T05:13:05.033Z,95515.63
2022-09-10T05:15:32.092Z,95526.97
2022-09-10T05:18:00.078Z,95521.00
2022-09-10T05:20:27.926Z,95526.41
2022-09-10T05:22:56.190Z,95518.41
2022-09-10T05:25:24.384Z,95528.56
2022-09-10T05:27:52.307Z,95533.41
2022-09-10T05:30:21.565Z,95537.38
2022-09-10T05:32:50.092Z,95537.09
2022-09-10T05:35:17.238Z,95533.84
2022-09-10T05:37:46.247Z,95539.22
2022-09-10T05:40:14.616Z,95531.13
2022-09-10T05:42:42.277Z,95531.63
2022-09-10T05:45:10.281Z,95540.25
2022-09-10T05:47:37.999Z,95534.28
2022-09-10T05:50:06.514Z,95535.88
2022-09-10T05:52:34.207Z,95535.28
2022-09-10T05:55:04.839Z,95541.47
2022-09-10T05:57:31.907Z,95544.16
2022-09-10T06:00:00.136Z,95546.59
2022-09-10T06:02:27.548Z,95550.38
2022-09-10T06:04:56.511Z,95553.06
2022-09-10T06:07:23.773Z,95541.75
2022-09-10T06:09:51.738Z,95556.84
2022-09-10T06:12:30.568Z,95551.47
2022-09-10T06:14:58.967Z,95555.75
2022-09-10T06:17:26.088Z,95557.44
2022-09-10T06:19:53.442Z,95565.81
2022-09-10T06:22:20.559Z,95561.25
2022-09-10T06:24:50.666Z,95562.84
2022-09-10T06:27:18.856Z,95562.25
2022-09-10T06:29:47.571Z,95562.25
2022-09-10T06:32:14.616Z,95564.66
2022-09-10T06:34:43.523Z,95563.28
2022-09-10T06:37:11.167Z,95561.06
2022-09-10T06:39:39.447Z,95557.28
2022-09-10T06:42:07.138Z,95565.59
2022-09-10T06:44:53.983Z,95574.94
2022-09-10T06:48:25.315Z,95574.19
2022-09-10T06:50:21.481Z,95576.81
2022-09-10T06:52:50.131Z,95578.41
2022-09-10T06:55:20.530Z,95581.34
2022-09-10T06:57:47.557Z,95576.66
2022-09-10T07:00:17.477Z,95572.25
2022-09-10T07:02:50.450Z,95579.88
2022-09-10T07:05:17.866Z,95585.03
2022-09-10T07:07:46.395Z,95583.66
2022-09-10T07:10:14.639Z,95585.28
2022-09-10T07:12:41.966Z,95579.28
2022-09-10T07:15:09.454Z,95580.81
2022-09-10T07:17:37.124Z,95583.75
2022-09-10T07:20:04.519Z,95589.34
2022-09-10T07:22:45.923Z,95587.53
2022-09-10T07:25:14.563Z,95587.53
2022-09-10T07:28:01.226Z,95592.34
2022-09-10T07:30:29.757Z,95604.53
2022-09-10T07:32:56.817Z,95601.53
2022-09-10T07:35:28.512Z,95595.34
2022-09-10T07:37:55.994Z,95606.13
2022-09-10T07:40:23.452Z,95609.94
2022-09-10T07:42:52.399Z,95608.31
2022-09-10T07:45:19.793Z,95606.94
2022-09-10T07:47:47.840Z,95612.25
2022-09-10T07:50:14.952Z,95613.16
2022-09-10T07:52:42.550Z,95618.13
2022-09-10T07:55:11.435Z,95610.00
2022-09-10T07:57:41.044Z,95625.09
2022-09-10T08:00:14.967Z,95622.72
2022-09-10T08:02:51.996Z,95627.50
2022-09-10T08:05:21.569Z,95629.91
2022-09-10T08:07:52.062Z,95630.91
2022-09-10T08:10:19.608Z,95636.63
2022-09-10T08:12:47.839Z,95641.72
2022-09-10T08:15:14.913Z,95643.31
2022-09-10T08:17:42.794Z,95640.06
2022-09-10T08:20:10.201Z,95640.75
2022-09-10T08:22:40.218Z,95649.28
2022-09-10T08:25:10.603Z,95648.34
2022-09-10T08:27:38.602Z,95651.03
2022-09-10T08:30:08.906Z,95643.44
2022-09-10T08:32:36.911Z,95654.66
2022-09-10T08:35:05.825Z,95649.28
2022-09-10T08:37:34.205Z,95656.84
2022-09-10T08:40:03.246Z,95655.09
2022-09-10T08:42:36.775Z,95656.09
2022-09-10T08:45:27.365Z,95660.50
2022-09-10T08:48:02.277Z,95663.00
2022-09-10T08:50:50.167Z,95668.13
2022-09-10T08:53:30.899Z,95662.44
2022-09-10T08:56:01.959Z,95670.72
2022-09-10T08:58:41.529Z,95668.91
2022-09-10T09:01:13.855Z,95673.53
2022-09-10T09:03:45.225Z,95671.63
2022-09-10T09:06:26.944Z,95669.13
2022-09-10T09:08:54.981Z,95670.94
2022-09-10T09:11:46.044Z,95663.34
2022-09-10T09:14:13.040Z,95673.56
2022-09-10T09:16:44.375Z,95676.75
2022-09-10T09:19:30.259Z,95682.38
2022-09-10T09:22:04.513Z,95678.78
2022-09-10T09:24:53.715Z,95676.28
2022-09-10T09:27:21.377Z,95674.78
2022-09-10T09:30:18.675Z,95672.78
2022-09-10T09:32:47.103Z,95669.59
2022-09-10T09:35:38.665Z,95681.16
2022-09-10T09:38:39.000Z,95675.75
2022-09-10T09:41:15.354Z,95669.78
2022-09-10T09:43:54.660Z,95666.50
2022-09-10T09:46:24.445Z,95667.00
2022-09-10T09:49:03.907Z,95668.22
2022-09-10T09:51:35.729Z,95672.31
2022-09-10T09:54:39.340Z,95666.78
2022-09-10T09:56:59.100Z,95663.59
2022-09-10T09:59:30.338Z,95670.44
2022-09-10T10:02:05.401Z,95671.44
2022-09-10T10:04:33.960Z,95669.22
2022-09-10T10:07:01.944Z,95664.84
2022-09-10T10:09:33.242Z,95661.00
2022-09-10T10:12:05.604Z,95657.28
2022-09-10T10:14:41.438Z,95659.50
2022-09-10T10:17:22.145Z,95653.91
2022-09-10T10:20:04.164Z,95646.66
2022-09-10T10:22:32.004Z,95658.03
2022-09-10T10:25:00.226Z,95656.63
2022-09-10T10:27:37.672Z,95655.00
2022-09-10T10:30:17.034Z,95651.41
2022-09-10T10:32:46.435Z,95650.16
2022-09-10T10:35:24.138Z,95648.53
2022-09-10T10:38:00.916Z,95640.34
2022-09-10T10:40:36.889Z,95632.34
2022-09-10T10:43:15.909Z,95629.81
2022-09-10T10:46:01.581Z,95629.19
2022-09-10T10:49:05.264Z,95625.34
2022-09-10T10:51:44.604Z,95621.88
2022-09-10T10:54:21.231Z,95614.06
2022-09-10T10:57:02.194Z,95615.06
2022-09-10T10:59:50.470Z,95616.03
2022-09-10T11:02:38.583Z,95614.44
2022-09-10T11:05:25.701Z,95619.13
2022-09-10T11:07:54.572Z,95615.22
2022-09-10T11:10:25.454Z,95613.75
2022-09-10T11:12:57.023Z,95619.09
2022-09-10T11:15:28.869Z,95615.72
2022-09-10T11:18:02.868Z,95618.22
2022-09-10T11:20:35.208Z,95615.63
2022-09-10T11:23:12.097Z,95619.75
2022-09-10T11:25:44.901Z,95608.25
2022-09-10T11:28:15.523Z,95625.41
2022-09-10T11:30:45.093Z,95622.09
2022-09-10T11:33:36.669Z,95622.94
2022-09-10T11:36:09.265Z,95625.94
2022-09-10T11:38:44.436Z,95624.97
2022-09-10T11:41:24.998Z,95619.25
2022-09-10T11:44:00.646Z,95618.44
2022-09-10T11:46:36.318Z,95622.75
2022-09-10T11:49:09.190Z,95612.91
2022-09-10T11:51:37.596Z,95618.84
2022-09-10T11:54:10.697Z,95613.44
2022-09-10T11:56:59.657Z,95616.31
2022-09-10T11:59:29.757Z,95610.59
2022-09-10T12:02:10.650Z,95612.72
2022-09-10T12:04:55.099Z,95597.16
2022-09-10T12:07:27.990Z,95588.63
2022-09-10T12:10:00.922Z,95594.41
2022-09-10T12:12:41.105Z,95592.38
2022-09-10T12:15:22.960Z,95586.06
2022-09-10T12:18:11.185Z,95592.31
2022-09-10T12:20:42.185Z,95587.47
2022-09-10T12:23:17.008Z,95581.81
2022-09-10T12:25:44.362Z,95580.59
2022-09-10T12:28:31.148Z,95576.66
2022-09-10T12:31:02.680Z,95570.28
2022-09-10T12:33:30.296Z,95576.41
2022-09-10T12:35:58.058Z,95575.97
2022-09-10T12:38:43.990Z,95583.31
2022-09-10T12:41:36.519Z,95575.97
2022-09-10T12:44:24.882Z,95569.19
2022-09-10T12:47:10.462Z,95571.19
2022-09-10T12:49:48.540Z,95559.56
2022-09-10T12:52:35.822Z,95556.53
2022-09-10T12:55:27.113Z,95551.44
2022-09-10T12:57:57.286Z,95550.03
2022-09-10T13:00:25.965Z,95552.88
2022-09-10T13:03:25.560Z,95552.53
2022-09-10T13:05:54.222Z,95538.16
2022-09-10T13:08:27.489Z,95537.66
2022-09-10T13:10:59.329Z,95541.34
2022-09-10T13:13:39.871Z,95547.75
2022-09-10T13:16:12.049Z,95547.94
2022-09-10T13:18:41.997Z,95531.81
2022-09-10T13:21:24.419Z,95537.56
2022-09-10T13:23:52.189Z,95535.22
2022-09-10T13:26:31.489Z,95530.91
2022-09-10T13:29:01.345Z,95533.81
2022-09-10T13:31:31.538Z,95534.44
2022-09-10T13:34:14.186Z,95538.25
2022-09-10T13:37:02.631Z,95550.38
2022-09-10T13:39:59.989Z,95555.38
2022-09-10T13:42:35.787Z,95548.19
2022-09-10T13:45:35.158Z,95548.19
2022-09-10T13:48:20.713Z,95542.63
2022-09-10T13:50:59.541Z,95541.16
2022-09-10T13:53:27.948Z,95550.94
2022-09-10T13:55:59.799Z,95548.72
2022-09-10T13:58:29.790Z,95541.94
2022-09-10T14:01:03.413Z,95543.22
2022-09-10T14:03:32.316Z,95540.66
2022-09-10T14:05:59.456Z,95528.38
2022-09-10T14:08:29.463Z,95530.47
2022-09-10T14:11:08.218Z,95537.81
2022-09-10T14:13:38.451Z,95535.44
2022-09-10T14:16:07.255Z,95531.78
2022-09-10T14:18:54.118Z,95528.59
2022-09-10T14:21:27.041Z,95523.31
2022-09-10T14:23:58.949Z,95525.81
2022-09-10T14:26:27.421Z,95524.38
2022-09-10T14:28:57.705Z,95530.47
2022-09-10T14:31:24.760Z,95533.03
2022-09-10T14:33:52.448Z,95535.09
2022-09-10T14:36:28.715Z,95532.09
2022-09-10T14:39:01.858Z,95520.59
2022-09-10T14:41:30.645Z,95519.59
2022-09-10T14:44:16.532Z,95527.28
2022-09-10T14:46:46.435Z,95520.72
2022-09-10T14:49:14.943Z,95517.03
2022-09-10T14:51:42.928Z,95526.72
2022-09-10T14:54:14.567Z,95527.53
2022-09-10T14:56:43.869Z,95524.50
2022-09-10T14:59:43.213Z,95528.34
2022-09-10T15:02:29.061Z,95530.56
2022-09-10T15:04:56.215Z,95528.75
2022-09-10T15:07:27.498Z,95528.75
2022-09-10T15:09:55.043Z,95534.34
2022-09-10T15:12:23.787Z,95529.19
2022-09-10T15:14:53.762Z,95533.00
2022-09-10T15:17:20.823Z,95535.84
2022-09-10T15:19:48.609Z,95525.16
2022-09-10T15:22:26.746Z,95528.31
2022-09-10T15:25:10.856Z,95529.56
2022-09-10T15:27:38.455Z,95530.44
2022-09-10T15:30:06.095Z,95527.22
2022-09-10T15:32:33.082Z,95528.88
2022-09-10T15:35:00.097Z,95541.16
2022-09-10T15:37:27.141Z,95529.63
2022-09-10T15:39:54.659Z,95534.88
2022-09-10T15:42:21.845Z,95538.38
2022-09-10T15:44:48.887Z,95538.97
2022-09-10T15:47:15.985Z,95535.81
2022-09-10T15:49:43.003Z,95538.16
2022-09-10T15:52:10.188Z,95533.50
2022-09-10T15:54:37.229Z,95539.53
2022-09-10T15:57:04.251Z,95543.34
2022-09-10T15:59:31.258Z,95535.72
2022-09-10T16:01:58.464Z,95537.75
2022-09-10T16:04:25.973Z,95540.19
